createdAt,value
2023-05-05T00:02:15.343Z,7.35
2023-05-05T00:04:41.795Z,9.43
2023-05-05T00:07:08.121Z,9.10
2023-05-05T00:09:34.427Z,9.18
2023-05-05T00:12:00.744Z,8.93
2023-05-05T00:14:27.081Z,10.27
2023-05-05T00:16:53.459Z,7.68
2023-05-05T00:19:19.790Z,11.50
2023-05-05T00:21:46.141Z,11.30
2023-05-05T00:24:12.516Z,6.38
2023-05-05T00:26:38.992Z,8.82
2023-05-05T00:29:05.509Z,10.00
2023-05-05T00:31:31.982Z,8.43
2023-05-05T00:33:58.586Z,10.25
2023-05-05T00:36:24.881Z,7.93
2023-05-05T00:38:51.288Z,9.70
2023-05-05T00:41:17.763Z,8.90
2023-05-05T00:43:44.135Z,11.63
2023-05-05T00:46:24.212Z,7.35
2023-05-05T00:48:51.075Z,10.10
2023-05-05T00:51:17.575Z,13.82
2023-05-05T00:53:45.051Z,8.30
2023-05-05T00:56:15.761Z,9.30
2023-05-05T00:58:42.867Z,8.77
2023-05-05T01:01:10.304Z,15.48
2023-05-05T01:03:41.583Z,7.75
2023-05-05T01:06:08.145Z,8.27
2023-05-05T01:08:37.500Z,12.80
2023-05-05T01:11:08.595Z,8.00
2023-05-05T01:13:37.584Z,11.02
2023-05-05T01:16:22.946Z,10.07
2023-05-05T01:18:52.345Z,10.23
2023-05-05T01:21:27.058Z,10.15
2023-05-05T01:24:12.267Z,10.32
2023-05-05T01:26:53.834Z,11.07
2023-05-05T01:29:38.891Z,12.98
2023-05-05T01:32:10.800Z,11.52
2023-05-05T01:34:40.166Z,10.15
2023-05-05T01:37:18.931Z,11.95
2023-05-05T01:39:46.754Z,12.60
2023-05-05T01:42:15.866Z,13.00
2023-05-05T01:44:43.623Z,20.90
2023-05-05T01:47:14.793Z,14.95
2023-05-05T01:49:43.985Z,11.38
2023-05-05T01:52:11.076Z,10.77
2023-05-05T01:54:38.680Z,10.52
2023-05-05T01:57:05.835Z,12.55
2023-05-05T01:59:32.557Z,11.88
2023-05-05T02:02:00.769Z,13.55
2023-05-05T02:04:29.140Z,10.63
2023-05-05T02:06:56.467Z,17.15
2023-05-05T02:09:24.850Z,9.43
2023-05-05T02:11:52.055Z,11.30
2023-05-05T02:14:19.973Z,12.55
2023-05-05T02:16:46.824Z,8.77
2023-05-05T02:19:14.270Z,10.18
2023-05-05T02:21:41.314Z,9.75
2023-05-05T02:24:08.098Z,10.77
2023-05-05T02:26:36.037Z,11.43
2023-05-05T02:29:04.025Z,9.35
2023-05-05T02:31:32.343Z,9.65
2023-05-05T02:34:01.497Z,10.10
2023-05-05T02:36:30.256Z,8.93
2023-05-05T02:38:59.454Z,8.70
2023-05-05T02:41:27.424Z,8.05
2023-05-05T02:43:54.951Z,8.85
2023-05-05T02:46:21.630Z,8.95
2023-05-05T02:48:47.965Z,8.48
2023-05-05T02:51:14.330Z,15.45
2023-05-05T02:53:40.942Z,8.75
2023-05-05T02:56:20.964Z,10.77
2023-05-05T02:58:51.869Z,6.65
2023-05-05T03:01:27.471Z,6.43
2023-05-05T03:04:00.891Z,5.70
2023-05-05T03:06:29.172Z,6.05
2023-05-05T03:09:03.096Z,6.00
2023-05-05T03:11:32.882Z,5.97
2023-05-05T03:14:04.144Z,5.65
2023-05-05T03:16:32.123Z,4.85
2023-05-05T03:19:00.114Z,7.97
2023-05-05T03:21:26.566Z,6.78
2023-05-05T03:23:53.280Z,4.45
2023-05-05T03:26:19.673Z,4.35
2023-05-05T03:28:46.412Z,5.75
2023-05-05T03:31:12.860Z,8.35
2023-05-05T03:33:39.217Z,5.82
2023-05-05T03:36:05.925Z,4.32
2023-05-05T03:38:32.290Z,5.75
2023-05-05T03:41:00.997Z,5.22
2023-05-05T03:43:27.359Z,6.63
2023-05-05T03:45:53.746Z,4.97
2023-05-05T03:48:20.276Z,4.10
2023-05-05T03:50:46.565Z,5.13
2023-05-05T03:53:12.875Z,5.85
2023-05-05T03:55:39.352Z,5.88
2023-05-05T03:58:05.897Z,6.13
2023-05-05T04:00:32.175Z,8.95
2023-05-05T04:02:59.395Z,6.82
2023-05-05T04:05:25.991Z,5.78
2023-05-05T04:07:52.446Z,4.88
2023-05-05T04:10:18.830Z,6.50
2023-05-05T04:12:45.189Z,6.72
2023-05-05T04:15:11.530Z,6.97
2023-05-05T04:17:37.951Z,8.85
2023-05-05T04:20:04.676Z,5.78
2023-05-05T04:22:31.068Z,7.70
2023-05-05T04:24:57.384Z,7.93
2023-05-05T04:27:26.109Z,8.40
2023-05-05T04:29:52.600Z,4.95
2023-05-05T04:32:18.906Z,6.10
2023-05-05T04:34:45.240Z,6.10
2023-05-05T04:37:11.678Z,6.93
2023-05-05T04:39:38.168Z,6.47
2023-05-05T04:42:04.522Z,7.70
2023-05-05T04:44:31.426Z,5.72
2023-05-05T04:46:58.115Z,5.70
2023-05-05T04:49:24.523Z,7.30
2023-05-05T04:51:50.873Z,7.03
2023-05-05T04:54:17.195Z,9.88
2023-05-05T04:56:43.521Z,9.05
2023-05-05T04:59:09.888Z,7.60
2023-05-05T05:01:38.417Z,5.97
2023-05-05T05:04:05.485Z,10.07
2023-05-05T05:06:32.230Z,5.43
2023-05-05T05:08:59.417Z,8.82
2023-05-05T05:11:26.015Z,13.13
2023-05-05T05:13:53.047Z,11.25
2023-05-05T05:16:19.513Z,9.88
2023-05-05T05:18:45.915Z,9.82
2023-05-05T05:21:12.348Z,10.90
2023-05-05T05:23:38.658Z,8.27
2023-05-05T05:26:05.939Z,12.10
2023-05-05T05:28:32.541Z,9.18
2023-05-05T05:30:59.486Z,13.45
2023-05-05T05:33:26.020Z,13.50
2023-05-05T05:35:52.755Z,10.95
2023-05-05T05:38:19.296Z,13.50
2023-05-05T05:40:45.570Z,13.23
2023-05-05T05:43:11.933Z,13.23
2023-05-05T05:45:38.341Z,12.30
2023-05-05T05:48:04.888Z,12.25
2023-05-05T05:50:31.376Z,16.27
2023-05-05T05:52:57.656Z,13.68
2023-05-05T05:55:23.929Z,13.10
2023-05-05T05:57:50.264Z,16.40
2023-05-05T06:00:16.659Z,14.88
2023-05-05T06:02:43.097Z,17.90
2023-05-05T06:05:09.548Z,14.30
2023-05-05T06:07:36.014Z,14.07
2023-05-05T06:10:11.241Z,14.68
2023-05-05T06:12:45.390Z,12.27
2023-05-05T06:15:11.738Z,13.57
2023-05-05T06:17:38.195Z,11.70
2023-05-05T06:20:05.321Z,12.13
2023-05-05T06:22:31.673Z,12.48
2023-05-05T06:24:58.101Z,13.18
2023-05-05T06:27:24.554Z,11.48
2023-05-05T06:29:51.316Z,12.48
2023-05-05T06:32:17.697Z,14.77
2023-05-05T06:34:44.975Z,12.70
2023-05-05T06:37:11.527Z,12.60
2023-05-05T06:39:37.822Z,11.38
2023-05-05T06:42:04.227Z,10.82
2023-05-05T06:44:31.155Z,12.27
2023-05-05T06:46:57.862Z,17.48
2023-05-05T06:49:24.251Z,13.30
2023-05-05T06:51:50.651Z,13.68
2023-05-05T06:54:17.513Z,14.20
2023-05-05T06:56:43.830Z,11.55
2023-05-05T06:59:10.087Z,10.20
2023-05-05T07:01:36.533Z,10.77
2023-05-05T07:04:02.857Z,13.85
2023-05-05T07:06:29.750Z,12.55
2023-05-05T07:08:56.343Z,10.32
2023-05-05T07:11:22.712Z,9.50
2023-05-05T07:13:49.407Z,13.90
2023-05-05T07:16:15.850Z,12.90
2023-05-05T07:18:42.145Z,12.48
2023-05-05T07:21:08.429Z,11.02
2023-05-05T07:23:34.722Z,9.77
2023-05-05T07:26:01.202Z,9.75
2023-05-05T07:28:27.849Z,9.18
2023-05-05T07:30:54.624Z,10.88
2023-05-05T07:33:20.965Z,9.48
2023-05-05T07:35:47.513Z,13.82
2023-05-05T07:38:13.839Z,8.85
2023-05-05T07:40:40.190Z,11.68
2023-05-05T07:43:06.530Z,9.07
2023-05-05T07:45:32.951Z,12.40
2023-05-05T07:47:59.848Z,17.48
2023-05-05T07:50:27.230Z,12.30
2023-05-05T07:53:02.455Z,7.50
2023-05-05T07:55:36.845Z,8.18
2023-05-05T07:58:03.822Z,8.27
2023-05-05T08:00:30.269Z,8.48
2023-05-05T08:02:56.767Z,10.25
2023-05-05T08:05:23.263Z,8.63
2023-05-05T08:07:49.563Z,6.35
2023-05-05T08:10:16.011Z,7.72
2023-05-05T08:12:42.367Z,8.38
2023-05-05T08:15:09.260Z,4.68
2023-05-05T08:17:46.039Z,4.68
2023-05-05T08:20:12.512Z,4.22
2023-05-05T08:22:38.895Z,6.72
2023-05-05T08:25:05.624Z,7.45
2023-05-05T08:27:35.198Z,8.43
2023-05-05T08:30:02.565Z,6.15
2023-05-05T08:32:29.907Z,5.53
2023-05-05T08:34:56.650Z,5.88
2023-05-05T08:37:22.949Z,10.75
2023-05-05T08:39:49.357Z,6.20
2023-05-05T08:42:25.490Z,8.48
2023-05-05T08:45:00.391Z,3.20
2023-05-05T08:47:26.874Z,4.55
2023-05-05T08:49:53.885Z,2.92
2023-05-05T08:52:23.370Z,5.07
2023-05-05T08:55:00.818Z,4.07
2023-05-05T08:57:31.972Z,3.95
2023-05-05T08:59:59.085Z,3.75
2023-05-05T09:02:29.009Z,4.47
2023-05-05T09:04:56.047Z,5.72
2023-05-05T09:07:22.569Z,3.10
2023-05-05T09:09:49.426Z,6.00
2023-05-05T09:12:18.057Z,5.95
2023-05-05T09:14:46.102Z,4.55
2023-05-05T09:17:25.292Z,3.63
2023-05-05T09:20:10.795Z,5.97
2023-05-05T09:22:38.842Z,4.60
2023-05-05T09:25:06.167Z,2.70
2023-05-05T09:27:36.598Z,4.38
2023-05-05T09:30:03.654Z,4.22
2023-05-05T09:32:30.626Z,3.50
2023-05-05T09:35:01.419Z,6.30
2023-05-05T09:37:29.108Z,6.10
2023-05-05T09:39:55.922Z,6.07
2023-05-05T09:42:22.298Z,4.05
2023-05-05T09:44:48.857Z,5.40
2023-05-05T09:47:28.574Z,4.57
2023-05-05T09:49:59.851Z,4.80
2023-05-05T09:52:26.187Z,4.72
2023-05-05T09:54:56.527Z,6.95
2023-05-05T09:57:31.612Z,5.30
2023-05-05T09:59:59.071Z,6.57
2023-05-05T10:02:35.474Z,7.03
2023-05-05T10:05:11.373Z,8.50
2023-05-05T10:07:38.363Z,6.75
2023-05-05T10:10:06.010Z,8.32
2023-05-05T10:12:34.417Z,6.63
2023-05-05T10:15:01.703Z,4.35
2023-05-05T10:17:30.367Z,3.97
2023-05-05T10:19:57.249Z,3.72
2023-05-05T10:22:24.080Z,4.47
2023-05-05T10:24:52.844Z,7.10
2023-05-05T10:27:20.032Z,2.80
2023-05-05T10:29:52.318Z,1.42
2023-05-05T10:32:53.625Z,2.47
2023-05-05T10:35:16.367Z,1.42
2023-05-05T10:37:44.457Z,2.05
2023-05-05T10:40:11.033Z,3.85
2023-05-05T10:42:38.680Z,1.60
2023-05-05T10:45:05.586Z,1.70
2023-05-05T10:47:33.083Z,3.13
2023-05-05T10:50:06.558Z,1.35
2023-05-05T10:52:36.071Z,1.13
2023-05-05T10:55:14.902Z,2.83
2023-05-05T10:57:42.631Z,1.33
2023-05-05T11:00:09.669Z,5.45
2023-05-05T11:02:36.501Z,3.70
2023-05-05T11:05:03.478Z,6.70
2023-05-05T11:07:30.124Z,7.15
2023-05-05T11:09:57.439Z,4.38
2023-05-05T11:12:23.983Z,4.22
2023-05-05T11:15:08.869Z,5.13
2023-05-05T11:17:46.122Z,3.93
2023-05-05T11:20:12.598Z,4.60
2023-05-05T11:23:05.545Z,5.15
2023-05-05T11:25:34.810Z,9.50
2023-05-05T11:28:11.427Z,5.30
2023-05-05T11:30:56.845Z,8.63
2023-05-05T11:33:33.126Z,7.03
2023-05-05T11:38:26.364Z,8.57
2023-05-05T11:40:59.316Z,9.15
2023-05-05T11:43:25.630Z,10.73
2023-05-05T11:46:09.548Z,10.05
2023-05-05T11:48:44.023Z,11.52
2023-05-05T11:51:16.790Z,8.57
2023-05-05T11:53:43.868Z,9.23
2023-05-05T11:56:10.897Z,6.93
2023-05-05T11:58:37.672Z,7.68
2023-05-05T12:01:07.770Z,6.68
2023-05-05T12:03:35.451Z,8.60
2023-05-05T12:06:02.559Z,10.75
2023-05-05T12:08:35.098Z,7.03
2023-05-05T12:11:05.057Z,10.52
2023-05-05T12:13:31.340Z,10.75
2023-05-05T12:16:07.814Z,7.93
2023-05-05T12:18:34.242Z,7.15
2023-05-05T12:21:00.677Z,7.10
2023-05-05T12:23:30.022Z,5.35
2023-05-05T12:25:56.589Z,7.90
2023-05-05T12:28:22.935Z,4.32
2023-05-05T12:30:59.173Z,5.82
2023-05-05T12:33:25.945Z,6.07
2023-05-05T12:35:52.272Z,3.75
2023-05-05T12:38:18.674Z,6.60
2023-05-05T12:40:46.038Z,4.22
2023-05-05T12:43:32.774Z,4.85
2023-05-05T12:46:00.455Z,4.90
2023-05-05T12:48:26.972Z,5.55
2023-05-05T12:50:53.587Z,6.15
2023-05-05T12:53:23.398Z,5.20
2023-05-05T12:55:50.377Z,7.80
2023-05-05T12:58:16.807Z,10.00
2023-05-05T13:00:43.467Z,7.55
2023-05-05T13:03:19.739Z,7.65
2023-05-05T13:05:46.311Z,6.93
2023-05-05T13:08:12.729Z,5.70
2023-05-05T13:10:41.479Z,10.63
2023-05-05T13:13:08.720Z,5.20
2023-05-05T13:15:35.305Z,7.13
2023-05-05T13:18:02.526Z,8.82
2023-05-05T13:20:29.280Z,7.22
2023-05-05T13:22:55.694Z,8.85
2023-05-05T13:25:22.184Z,12.52
2023-05-05T13:27:48.527Z,8.50
2023-05-05T13:30:14.909Z,10.00
2023-05-05T13:32:41.271Z,11.70
2023-05-05T13:35:08.212Z,7.95
2023-05-05T13:37:34.809Z,12.93
2023-05-05T13:40:01.314Z,6.30
2023-05-05T13:42:28.088Z,6.32
2023-05-05T13:44:54.378Z,5.50
2023-05-05T13:47:20.754Z,4.20
2023-05-05T13:49:47.207Z,5.97
2023-05-05T13:52:13.722Z,5.32
2023-05-05T13:54:40.385Z,3.80
2023-05-05T13:57:07.958Z,2.90
2023-05-05T13:59:34.368Z,2.38
2023-05-05T14:02:01.184Z,2.00
2023-05-05T14:04:27.883Z,2.45
2023-05-05T14:06:54.634Z,4.57
2023-05-05T14:09:21.076Z,2.72
2023-05-05T14:11:47.469Z,3.50
2023-05-05T14:14:13.830Z,2.85
2023-05-05T14:16:40.355Z,2.75
2023-05-05T14:19:06.823Z,3.20
2023-05-05T14:21:33.209Z,3.03
2023-05-05T14:24:00.170Z,2.28
2023-05-05T14:26:27.306Z,4.53
2023-05-05T14:28:53.686Z,4.60
2023-05-05T14:31:20.145Z,4.47
2023-05-05T14:33:46.597Z,2.55
2023-05-05T14:36:14.203Z,4.20
2023-05-05T14:38:41.991Z,2.25
2023-05-05T14:41:08.493Z,3.72
2023-05-05T14:43:35.664Z,3.40
2023-05-05T14:46:06.599Z,2.15
2023-05-05T14:48:33.572Z,1.92
2023-05-05T14:51:00.231Z,2.20
2023-05-05T14:53:26.802Z,2.70
2023-05-05T14:55:53.104Z,2.10
2023-05-05T14:58:22.389Z,3.22
2023-05-05T15:00:48.849Z,2.45
2023-05-05T15:03:15.424Z,1.95
2023-05-05T15:05:41.850Z,2.65
2023-05-05T15:08:08.151Z,1.63
2023-05-05T15:10:34.552Z,2.55
2023-05-05T15:13:01.046Z,1.67
2023-05-05T15:15:27.399Z,2.83
2023-05-05T15:17:53.790Z,2.20
2023-05-05T15:20:20.169Z,1.63
2023-05-05T15:22:47.923Z,5.03
2023-05-05T15:25:15.998Z,2.40
2023-05-05T15:27:42.362Z,2.05
2023-05-05T15:30:08.876Z,2.03
2023-05-05T15:32:35.261Z,2.67
2023-05-05T15:35:01.667Z,2.95
2023-05-05T15:37:29.115Z,2.28
2023-05-05T15:39:55.715Z,2.30
2023-05-05T15:42:22.146Z,2.05
2023-05-05T15:44:48.585Z,2.30
2023-05-05T15:47:14.980Z,0.85
2023-05-05T15:49:41.325Z,2.83
2023-05-05T15:52:07.975Z,2.55
2023-05-05T15:54:34.418Z,0.95
2023-05-05T15:57:00.646Z,1.92
2023-05-05T15:59:27.165Z,1.88
2023-05-05T16:01:53.923Z,1.42
2023-05-05T16:04:20.484Z,3.22
2023-05-05T16:06:46.804Z,3.58
2023-05-05T16:09:13.197Z,1.77
2023-05-05T16:11:39.480Z,1.58
2023-05-05T16:14:06.006Z,1.50
2023-05-05T16:16:32.332Z,1.23
2023-05-05T16:18:59.277Z,1.83
2023-05-05T16:21:25.811Z,4.95
2023-05-05T16:23:52.336Z,1.30
2023-05-05T16:26:18.945Z,1.15
2023-05-05T16:28:45.347Z,2.75
2023-05-05T16:31:13.424Z,0.57
2023-05-05T16:33:41.213Z,1.45
2023-05-05T16:36:08.941Z,5.00
2023-05-05T16:38:35.481Z,4.13
2023-05-05T16:41:01.857Z,2.45
2023-05-05T16:43:28.323Z,2.53
2023-05-05T16:45:54.790Z,1.77
2023-05-05T16:48:22.219Z,4.13
2023-05-05T16:50:48.577Z,1.13
2023-05-05T18:21:52.593Z,4.40
2023-05-05T18:24:20.409Z,3.20
2023-05-05T18:26:51.185Z,2.33
2023-05-05T18:29:18.257Z,2.10
2023-05-05T18:31:45.662Z,3.75
2023-05-05T18:34:12.343Z,2.15
2023-05-05T18:36:38.664Z,3.15
2023-05-05T18:39:05.093Z,3.58
2023-05-05T18:41:31.419Z,3.30
2023-05-05T18:43:57.688Z,2.38
2023-05-05T18:46:24.024Z,2.58
2023-05-05T18:48:50.307Z,2.55
2023-05-05T18:51:16.763Z,5.03
2023-05-05T18:53:43.050Z,3.55
2023-05-05T18:56:09.368Z,3.15
2023-05-05T18:58:35.819Z,4.65
2023-05-05T19:01:02.170Z,2.72
2023-05-05T19:03:28.583Z,3.75
2023-05-05T19:05:55.096Z,3.80
2023-05-05T19:08:22.423Z,2.20
2023-05-05T19:10:48.768Z,3.13
2023-05-05T19:13:15.394Z,7.05
2023-05-05T19:15:41.885Z,3.05
2023-05-05T19:18:08.177Z,3.28
2023-05-05T19:20:34.605Z,4.32
2023-05-05T19:23:03.772Z,3.10
2023-05-05T19:25:30.772Z,2.53
2023-05-05T19:27:57.206Z,4.53
2023-05-05T19:30:23.628Z,4.95
2023-05-05T19:32:49.959Z,3.97
2023-05-05T19:35:16.717Z,3.88
2023-05-05T19:37:43.042Z,4.60
2023-05-05T19:40:10.011Z,4.88
2023-05-05T19:42:36.947Z,4.03
2023-05-05T19:45:03.335Z,5.63
2023-05-05T19:47:29.681Z,3.83
2023-05-05T19:49:55.971Z,5.97
2023-05-05T19:52:26.722Z,4.10
2023-05-05T19:54:53.004Z,4.40
2023-05-05T19:57:19.344Z,4.70
2023-05-05T19:59:47.122Z,4.55
2023-05-05T20:02:15.353Z,3.83
2023-05-05T20:04:41.730Z,4.25
2023-05-05T20:07:08.071Z,4.10
2023-05-05T20:09:34.427Z,6.97
2023-05-05T20:12:01.983Z,5.55
2023-05-05T20:14:28.432Z,6.13
2023-05-05T20:16:54.915Z,5.50
2023-05-05T20:19:21.328Z,2.97
2023-05-05T20:21:47.674Z,4.85
2023-05-05T20:24:14.028Z,4.30
2023-05-05T20:26:40.441Z,3.95
2023-05-05T20:29:06.715Z,6.95
2023-05-05T20:31:34.857Z,6.05
2023-05-05T20:34:01.306Z,7.55
2023-05-05T20:36:27.661Z,4.07
2023-05-05T20:38:54.093Z,6.03
2023-05-05T20:41:20.635Z,5.35
2023-05-05T20:43:46.897Z,5.88
2023-05-05T20:46:14.098Z,5.05
2023-05-05T20:48:42.759Z,4.70
2023-05-05T20:51:09.517Z,5.75
2023-05-05T20:53:35.988Z,9.27
2023-05-05T20:56:02.391Z,5.43
2023-05-05T20:58:29.561Z,7.25
2023-05-05T21:00:56.120Z,4.90
2023-05-05T21:03:22.497Z,8.68
2023-05-05T21:05:48.961Z,5.50
2023-05-05T21:08:15.255Z,5.85
2023-05-05T21:10:41.576Z,4.43
2023-05-05T21:13:07.918Z,5.13
2023-05-05T21:15:37.182Z,5.38
2023-05-05T21:18:04.151Z,6.60
2023-05-05T21:20:30.490Z,5.75
2023-05-05T21:22:56.954Z,6.45
2023-05-05T21:25:23.443Z,6.13
2023-05-05T21:27:49.744Z,8.43
2023-05-05T21:30:16.622Z,5.70
2023-05-05T21:32:45.253Z,6.55
2023-05-05T21:35:11.716Z,6.80
2023-05-05T21:37:38.883Z,6.97
2023-05-05T21:40:06.358Z,6.50
2023-05-05T21:42:32.649Z,6.95
2023-05-05T21:44:59.409Z,7.85
2023-05-05T21:47:25.934Z,4.78
2023-05-05T21:49:52.366Z,8.30
2023-05-05T21:52:18.747Z,7.50
2023-05-05T21:54:45.223Z,7.03
2023-05-05T21:57:11.605Z,7.47
2023-05-05T21:59:37.900Z,7.00
2023-05-05T22:02:04.294Z,7.90
2023-05-05T22:04:30.586Z,7.28
2023-05-05T22:06:57.155Z,7.32
2023-05-05T22:09:23.670Z,7.53
2023-05-05T22:11:50.487Z,8.73
2023-05-05T22:14:16.882Z,7.22
2023-05-05T22:16:43.192Z,7.30
2023-05-05T22:19:09.679Z,8.25
2023-05-05T22:21:36.071Z,6.97
2023-05-05T22:24:02.414Z,9.90
2023-05-05T22:26:28.735Z,7.13
2023-05-05T22:28:55.135Z,9.98
2023-05-05T22:31:21.482Z,7.50
2023-05-05T22:33:47.805Z,11.15
2023-05-05T22:36:14.230Z,7.22
2023-05-05T22:38:40.648Z,8.95
2023-05-05T22:41:07.501Z,7.88
2023-05-05T22:43:33.771Z,11.15
2023-05-05T22:46:01.009Z,9.95
2023-05-05T22:48:27.302Z,11.20
2023-05-05T22:50:53.680Z,10.25
2023-05-05T22:53:19.946Z,8.95
2023-05-05T22:55:46.357Z,8.48
2023-05-05T22:58:12.656Z,10.73
2023-05-05T23:00:39.161Z,9.85
2023-05-05T23:03:05.721Z,9.75
2023-05-05T23:05:32.150Z,8.10
2023-05-05T23:08:01.041Z,8.43
2023-05-05T23:10:28.673Z,9.38
2023-05-05T23:12:55.198Z,9.85
2023-05-05T23:15:21.670Z,7.82
2023-05-05T23:17:48.176Z,10.23
2023-05-05T23:20:15.184Z,9.80
2023-05-05T23:22:41.605Z,9.27
2023-05-05T23:25:08.467Z,10.07
2023-05-05T23:27:35.068Z,8.35
2023-05-05T23:30:01.493Z,9.13
2023-05-05T23:32:27.848Z,10.02
2023-05-05T23:34:54.174Z,8.63
2023-05-05T23:37:20.607Z,9.93
2023-05-05T23:39:47.013Z,8.35
2023-05-05T23:42:13.352Z,9.90
2023-05-05T23:44:39.599Z,8.82
2023-05-05T23:47:05.969Z,9.68
2023-05-05T23:49:32.248Z,11.63
2023-05-05T23:51:58.670Z,12.55
2023-05-05T23:54:24.917Z,11.73
2023-05-05T23:56:51.264Z,10.82
2023-05-05T23:59:17.846Z,11.70
